createdAt,value
2018-02-13T00:00:39.595Z,0
2018-02-13T00:01:40.110Z,0
2018-02-13T00:02:40.123Z,0
2018-02-13T00:03:39.881Z,0
2018-02-13T00:04:40.147Z,0
2018-02-13T00:05:39.905Z,0
2018-02-13T00:06:39.414Z,0
2018-02-13T00:07:39.952Z,0
2018-02-13T00:08:40.184Z,0
2018-02-13T00:09:40.195Z,0
2018-02-13T00:10:40.209Z,0
2018-02-13T00:11:40.231Z,0
2018-02-13T00:12:39.992Z,0
2018-02-13T00:13:39.489Z,0
2018-02-13T00:14:39.767Z,0
2018-02-13T00:15:40.269Z,0
2018-02-13T00:16:40.280Z,0
2018-02-13T00:17:40.038Z,0
2018-02-13T00:18:40.304Z,0
2018-02-13T00:19:40.316Z,0
2018-02-13T00:20:40.321Z,0
2018-02-13T00:21:40.084Z,0
2018-02-13T00:22:39.838Z,0
2018-02-13T00:23:40.114Z,0
2018-02-13T00:24:40.121Z,0
2018-02-13T00:25:40.376Z,0
2018-02-13T00:26:40.136Z,0
2018-02-13T00:27:40.417Z,0
2018-02-13T00:28:40.167Z,0
2018-02-13T00:29:39.978Z,0
2018-02-13T00:30:40.451Z,0
2018-02-13T00:31:39.949Z,0
2018-02-13T00:32:54.925Z,0
2018-02-13T00:33:40.469Z,0
2018-02-13T00:34:40.227Z,0
2018-02-13T00:35:40.287Z,0
2018-02-13T00:36:39.994Z,0
2018-02-13T00:37:40.006Z,0
2018-02-13T00:38:40.270Z,0
2018-02-13T00:39:40.034Z,0
2018-02-13T00:40:40.546Z,0
2018-02-13T00:41:40.553Z,0
2018-02-13T00:42:40.087Z,0
2018-02-13T00:43:40.341Z,0
2018-02-13T00:44:40.589Z,0
2018-02-13T00:45:40.351Z,0
2018-02-13T00:46:40.367Z,0
2018-02-13T00:47:40.381Z,0
2018-02-13T00:48:40.385Z,0
2018-02-13T00:49:39.894Z,0
2018-02-13T00:50:40.158Z,0
2018-02-13T00:51:40.498Z,0
2018-02-13T00:52:40.427Z,0
2018-02-13T00:53:40.187Z,0
2018-02-13T00:54:40.702Z,0
2018-02-13T00:55:40.210Z,0
2018-02-13T00:56:40.227Z,0
2018-02-13T00:57:40.737Z,0
2018-02-13T00:58:40.492Z,0
2018-02-13T00:59:39.998Z,0
2018-02-13T01:00:40.516Z,0
2018-02-13T01:01:40.534Z,0
2018-02-13T01:02:40.789Z,0
2018-02-13T01:03:40.296Z,0
2018-02-13T01:04:40.561Z,0
2018-02-13T01:05:40.575Z,0
2018-02-13T01:06:40.591Z,0
2018-02-13T01:07:40.870Z,0
2018-02-13T01:08:40.613Z,0
2018-02-13T01:09:40.614Z,0
2018-02-13T01:10:40.629Z,0
2018-02-13T01:11:40.448Z,0
2018-02-13T01:12:40.911Z,0
2018-02-13T01:13:40.912Z,0
2018-02-13T01:14:40.931Z,0
2018-02-13T01:15:40.487Z,0
2018-02-13T01:16:40.952Z,0
2018-02-13T01:17:40.468Z,0
2018-02-13T01:18:40.720Z,0
2018-02-13T01:19:40.980Z,0
2018-02-13T01:20:40.993Z,0
2018-02-13T01:21:40.757Z,0
2018-02-13T01:22:40.762Z,0
2018-02-13T01:23:40.526Z,0
2018-02-13T01:24:40.535Z,0
2018-02-13T01:25:40.547Z,0
2018-02-13T01:26:40.556Z,0
2018-02-13T01:27:40.820Z,0
2018-02-13T01:28:41.079Z,0
2018-02-13T01:29:40.844Z,0
2018-02-13T01:30:40.849Z,0
2018-02-13T01:31:40.865Z,0
2018-02-13T01:32:40.875Z,0
2018-02-13T01:33:41.199Z,0
2018-02-13T01:34:40.649Z,0
2018-02-13T01:35:40.903Z,0
2018-02-13T01:36:40.669Z,0
2018-02-13T01:37:40.681Z,0
2018-02-13T01:38:40.437Z,0
2018-02-13T01:39:41.213Z,0
2018-02-13T01:40:40.714Z,0
2018-02-13T01:41:40.727Z,0
2018-02-13T01:42:40.480Z,0
2018-02-13T01:43:40.743Z,0
2018-02-13T01:44:41.258Z,0
2018-02-13T01:45:41.020Z,0
2018-02-13T01:46:40.529Z,0
2018-02-13T01:47:40.789Z,0
2018-02-13T01:48:41.307Z,0
2018-02-13T01:49:40.810Z,0
2018-02-13T01:50:40.822Z,0
2018-02-13T01:51:41.082Z,0
2018-02-13T01:52:41.111Z,0
2018-02-13T01:53:40.605Z,0
2018-02-13T01:54:40.871Z,0
2018-02-13T01:55:41.151Z,0
2018-02-13T01:56:41.139Z,0
2018-02-13T01:57:40.672Z,0
2018-02-13T01:58:41.168Z,0
2018-02-13T01:59:41.430Z,0
2018-02-13T02:00:41.441Z,0
2018-02-13T02:01:41.453Z,0
2018-02-13T02:02:41.220Z,0
2018-02-13T02:03:41.474Z,0
2018-02-13T02:04:40.975Z,0
2018-02-13T02:05:40.986Z,0
2018-02-13T02:06:41.002Z,0
2018-02-13T02:07:41.524Z,0
2018-02-13T02:08:41.334Z,0
2018-02-13T02:09:41.284Z,0
2018-02-13T02:10:41.298Z,0
2018-02-13T02:11:41.564Z,0
2018-02-13T02:12:41.573Z,0
2018-02-13T02:13:41.582Z,0
2018-02-13T02:14:41.346Z,0
2018-02-13T02:15:41.355Z,0
2018-02-13T02:16:41.112Z,0
2018-02-13T02:17:41.377Z,0
2018-02-13T02:18:41.388Z,0
2018-02-13T02:19:41.652Z,0
2018-02-13T02:20:41.663Z,0
2018-02-13T02:21:41.175Z,0
2018-02-13T02:22:41.683Z,0
2018-02-13T02:23:41.449Z,0
2018-02-13T02:24:41.705Z,0
2018-02-13T02:25:41.721Z,0
2018-02-13T02:26:41.477Z,0
2018-02-13T02:27:41.492Z,0
2018-02-13T02:28:41.501Z,0
2018-02-13T02:29:41.510Z,0
2018-02-13T02:30:41.542Z,0
2018-02-13T02:31:41.032Z,0
2018-02-13T02:32:41.565Z,0
2018-02-13T02:33:41.317Z,0
2018-02-13T02:34:41.323Z,0
2018-02-13T02:35:41.076Z,0
2018-02-13T02:36:41.861Z,0
2018-02-13T02:37:41.355Z,0
2018-02-13T02:38:41.621Z,0
2018-02-13T02:39:41.381Z,0
2018-02-13T02:40:41.640Z,0
2018-02-13T02:41:41.903Z,0
2018-02-13T02:42:41.661Z,0
2018-02-13T02:43:41.924Z,0
2018-02-13T02:44:41.429Z,0
2018-02-13T02:45:41.949Z,0
2018-02-13T02:46:41.957Z,0
2018-02-13T02:47:41.493Z,0
2018-02-13T02:48:41.483Z,0
2018-02-13T02:49:41.490Z,0
2018-02-13T02:50:41.782Z,0
2018-02-13T02:51:41.504Z,0
2018-02-13T02:52:42.022Z,0
2018-02-13T02:53:41.773Z,0
2018-02-13T02:54:41.810Z,0
2018-02-13T02:55:42.068Z,0
2018-02-13T02:56:42.068Z,0
2018-02-13T02:57:42.087Z,0
2018-02-13T02:58:41.593Z,0
2018-02-13T02:59:41.867Z,0
2018-02-13T03:00:42.124Z,0
2018-02-13T03:01:41.887Z,0
2018-02-13T03:02:42.142Z,0
2018-02-13T03:03:41.653Z,0
2018-02-13T03:04:41.911Z,0
2018-02-13T03:05:41.684Z,0
2018-02-13T03:06:41.680Z,0
2018-02-13T03:07:41.697Z,0
2018-02-13T03:08:41.959Z,0
2018-02-13T03:09:41.971Z,0
2018-02-13T03:10:41.743Z,0
2018-02-13T03:11:41.742Z,0
2018-02-13T03:12:42.250Z,0
2018-02-13T03:13:42.013Z,0
2018-02-13T03:14:41.519Z,0
2018-02-13T03:15:41.801Z,0
2018-02-13T03:16:42.298Z,0
2018-02-13T03:17:41.808Z,0
2018-02-13T03:18:42.067Z,0
2018-02-13T03:19:41.830Z,0
2018-02-13T03:20:42.090Z,0
2018-02-13T03:21:42.353Z,0
2018-02-13T03:22:41.866Z,0
2018-02-13T03:23:41.890Z,0
2018-02-13T03:24:42.137Z,0
2018-02-13T03:25:42.144Z,0
2018-02-13T03:26:42.413Z,0
2018-02-13T03:27:41.669Z,0
2018-02-13T03:28:42.179Z,0
2018-02-13T03:29:42.447Z,0
2018-02-13T03:30:42.477Z,0
2018-02-13T03:31:42.471Z,0
2018-02-13T03:32:42.239Z,0
2018-02-13T03:33:42.237Z,0
2018-02-13T03:34:41.994Z,0
2018-02-13T03:35:42.551Z,0
2018-02-13T03:36:42.267Z,0
2018-02-13T03:37:42.027Z,0
2018-02-13T03:38:42.340Z,0
2018-02-13T03:39:42.307Z,0
2018-02-13T03:40:42.552Z,0
2018-02-13T03:41:42.381Z,0
2018-02-13T03:42:42.359Z,0
2018-02-13T03:43:42.360Z,0
2018-02-13T03:44:41.863Z,0
2018-02-13T03:45:42.614Z,0
2018-02-13T03:46:42.628Z,0
2018-02-13T03:47:42.138Z,0
2018-02-13T03:48:42.153Z,0
2018-02-13T03:49:42.426Z,0
2018-02-13T03:50:42.443Z,0
2018-02-13T03:51:42.436Z,0
2018-02-13T03:52:42.189Z,0
2018-02-13T03:53:42.454Z,0
2018-02-13T03:54:42.717Z,0
2018-02-13T03:55:42.744Z,0
2018-02-13T03:56:42.236Z,0
2018-02-13T03:57:42.007Z,0
2018-02-13T03:58:42.509Z,0
2018-02-13T03:59:42.772Z,0
2018-02-13T04:00:42.279Z,0
2018-02-13T04:01:42.312Z,0
2018-02-13T04:02:42.558Z,0
2018-02-13T04:03:42.566Z,0
2018-02-13T04:04:42.830Z,0
2018-02-13T04:05:42.337Z,0
2018-02-13T04:06:42.362Z,0
2018-02-13T04:07:42.372Z,0
2018-02-13T04:08:42.383Z,0
2018-02-13T04:09:42.892Z,0
2018-02-13T04:10:42.643Z,0
2018-02-13T04:11:42.657Z,0
2018-02-13T04:12:42.665Z,0
2018-02-13T04:13:42.177Z,0
2018-02-13T04:14:42.442Z,0
2018-02-13T04:15:42.195Z,0
2018-02-13T04:16:42.961Z,0
2018-02-13T04:17:42.471Z,0
2018-02-13T04:18:42.982Z,0
2018-02-13T04:19:42.996Z,0
2018-02-13T04:20:42.754Z,0
2018-02-13T04:21:42.511Z,0
2018-02-13T04:22:42.776Z,0
2018-02-13T04:23:42.787Z,0
2018-02-13T04:24:42.793Z,0
2018-02-13T04:25:43.057Z,0
2018-02-13T04:26:42.576Z,0
2018-02-13T04:27:43.085Z,0
2018-02-13T04:28:42.842Z,0
2018-02-13T04:29:43.107Z,0
2018-02-13T04:30:42.868Z,0
2018-02-13T04:31:42.623Z,0
2018-02-13T04:32:42.633Z,0
2018-02-13T04:33:43.148Z,0
2018-02-13T04:34:42.654Z,0
2018-02-13T04:35:43.222Z,0
2018-02-13T04:36:43.191Z,0
2018-02-13T04:37:42.946Z,0
2018-02-13T04:38:42.702Z,0
2018-02-13T04:39:42.705Z,0
2018-02-13T04:40:43.229Z,0
2018-02-13T04:41:43.234Z,0
2018-02-13T04:42:42.499Z,0
2018-02-13T04:43:42.994Z,0
2018-02-13T04:44:42.756Z,0
2018-02-13T04:45:43.280Z,0
2018-02-13T04:46:42.785Z,0
2018-02-13T04:47:43.083Z,0
2018-02-13T04:48:42.808Z,0
2018-02-13T04:49:43.342Z,0
2018-02-13T04:50:43.087Z,0
2018-02-13T04:51:43.090Z,0
2018-02-13T04:52:42.595Z,0
2018-02-13T04:53:43.113Z,0
2018-02-13T04:54:43.185Z,0
2018-02-13T04:55:43.132Z,0
2018-02-13T04:56:42.895Z,0
2018-02-13T04:57:43.160Z,0
2018-02-13T04:58:43.164Z,0
2018-02-13T04:59:43.174Z,0
2018-02-13T05:00:43.502Z,0
2018-02-13T05:01:43.218Z,0
2018-02-13T05:02:42.965Z,0
2018-02-13T05:03:43.477Z,0
2018-02-13T05:04:43.234Z,0
2018-02-13T05:05:43.005Z,0
2018-02-13T05:06:43.504Z,0
2018-02-13T05:07:43.017Z,0
2018-02-13T05:08:43.272Z,0
2018-02-13T05:09:43.032Z,0
2018-02-13T05:10:43.553Z,0
2018-02-13T05:11:43.075Z,0
2018-02-13T05:12:43.071Z,0
2018-02-13T05:13:43.330Z,0
2018-02-13T05:14:43.089Z,0
2018-02-13T05:15:43.113Z,0
2018-02-13T05:16:43.359Z,0
2018-02-13T05:17:43.620Z,0
2018-02-13T05:18:42.880Z,0
2018-02-13T05:19:43.800Z,0
2018-02-13T05:20:43.667Z,0
2018-02-13T05:21:43.163Z,0
2018-02-13T05:22:42.927Z,0
2018-02-13T05:23:43.686Z,0
2018-02-13T05:24:43.699Z,0
2018-02-13T05:25:43.705Z,0
2018-02-13T05:26:43.467Z,0
2018-02-13T05:27:43.727Z,0
2018-02-13T05:28:42.978Z,0
2018-02-13T05:29:43.880Z,0
2018-02-13T05:30:43.067Z,0
2018-02-13T05:31:43.526Z,0
2018-02-13T05:32:43.780Z,0
2018-02-13T05:33:43.037Z,0
2018-02-13T05:34:43.554Z,0
2018-02-13T05:35:43.625Z,0
2018-02-13T05:36:43.598Z,0
2018-02-13T05:37:43.595Z,0
2018-02-13T05:38:43.852Z,0
2018-02-13T05:39:43.103Z,0
2018-02-13T05:40:43.367Z,0
2018-02-13T05:41:43.629Z,0
2018-02-13T05:42:43.713Z,0
2018-02-13T05:43:43.911Z,0
2018-02-13T05:44:43.157Z,0
2018-02-13T05:45:43.411Z,0
2018-02-13T05:46:43.786Z,0
2018-02-13T05:47:43.687Z,0
2018-02-13T05:48:43.968Z,0
2018-02-13T05:49:43.963Z,0
2018-02-13T05:50:43.472Z,0
2018-02-13T05:51:43.231Z,0
2018-02-13T05:52:43.498Z,0
2018-02-13T05:53:43.771Z,0
2018-02-13T05:54:44.023Z,0
2018-02-13T05:55:43.525Z,0
2018-02-13T05:56:43.788Z,4
2018-02-13T05:57:44.054Z,4
2018-02-13T05:58:44.079Z,4
2018-02-13T05:59:43.823Z,4
2018-02-13T06:00:43.615Z,4
2018-02-13T06:01:43.674Z,4
2018-02-13T06:02:43.603Z,4
2018-02-13T06:03:44.164Z,8
2018-02-13T06:04:43.873Z,8
2018-02-13T06:05:43.630Z,8
2018-02-13T06:06:43.392Z,12
2018-02-13T06:07:44.150Z,16
2018-02-13T06:08:43.409Z,16
2018-02-13T06:09:43.672Z,24
2018-02-13T06:10:43.940Z,24
2018-02-13T06:11:43.952Z,32
2018-02-13T06:12:43.471Z,32
2018-02-13T06:13:43.959Z,40
2018-02-13T06:14:44.247Z,44
2018-02-13T06:15:43.985Z,52
2018-02-13T06:16:44.256Z,60
2018-02-13T06:17:44.295Z,68
2018-02-13T06:18:44.043Z,68
2018-02-13T06:19:44.029Z,84
2018-02-13T06:20:44.037Z,96
2018-02-13T06:21:44.306Z,104
2018-02-13T06:22:43.556Z,112
2018-02-13T06:23:44.067Z,124
2018-02-13T06:24:44.101Z,132
2018-02-13T06:25:43.844Z,144
2018-02-13T06:26:44.363Z,156
2018-02-13T06:27:43.858Z,164
2018-02-13T06:28:43.870Z,176
2018-02-13T06:29:43.884Z,188
2018-02-13T06:30:44.150Z,196
2018-02-13T06:31:44.408Z,208
2018-02-13T06:32:43.918Z,216
2018-02-13T06:33:44.177Z,228
2018-02-13T06:34:44.188Z,240
2018-02-13T06:35:44.197Z,252
2018-02-13T06:36:43.711Z,264
2018-02-13T06:37:43.719Z,284
2018-02-13T06:38:44.233Z,300
2018-02-13T06:39:43.990Z,320
2018-02-13T06:40:44.599Z,344
2018-02-13T06:41:44.584Z,388
2018-02-13T06:42:44.293Z,452
2018-02-13T06:43:43.782Z,504
2018-02-13T06:44:44.041Z,552
2018-02-13T06:45:44.307Z,608
2018-02-13T06:46:44.314Z,668
2018-02-13T06:47:44.326Z,732
2018-02-13T06:48:44.334Z,792
2018-02-13T06:49:44.110Z,848
2018-02-13T06:50:44.115Z,900
2018-02-13T06:51:43.866Z,952
2018-02-13T06:52:44.630Z,996
2018-02-13T06:53:44.388Z,1040
2018-02-13T06:54:44.676Z,1080
2018-02-13T06:55:44.160Z,1116
2018-02-13T06:56:44.171Z,1152
2018-02-13T06:57:44.184Z,1204
2018-02-13T06:58:44.750Z,1256
2018-02-13T06:59:44.457Z,1308
2018-02-13T07:00:44.213Z,1360
2018-02-13T07:01:44.238Z,1400
2018-02-13T07:02:44.231Z,1432
2018-02-13T07:03:44.249Z,1464
2018-02-13T07:04:44.006Z,1528
2018-02-13T07:05:44.524Z,1620
2018-02-13T07:06:44.786Z,1688
2018-02-13T07:07:44.789Z,1720
2018-02-13T07:08:44.543Z,1740
2018-02-13T07:09:44.301Z,1772
2018-02-13T07:10:44.573Z,1812
2018-02-13T07:11:44.336Z,1856
2018-02-13T07:12:44.599Z,1904
2018-02-13T07:13:44.610Z,1952
2018-02-13T07:14:44.617Z,2000
2018-02-13T07:15:44.381Z,2048
2018-02-13T07:16:44.138Z,2088
2018-02-13T07:17:44.657Z,2136
2018-02-13T07:18:44.160Z,2180
2018-02-13T07:19:44.931Z,2220
2018-02-13T07:20:44.436Z,2256
2018-02-13T07:21:44.953Z,2300
2018-02-13T07:22:44.463Z,2336
2018-02-13T07:23:44.971Z,2352
2018-02-13T07:24:44.733Z,2408
2018-02-13T07:25:44.740Z,2472
2018-02-13T07:26:44.257Z,2520
2018-02-13T07:27:44.262Z,2596
2018-02-13T07:28:44.801Z,2672
2018-02-13T07:29:44.783Z,2728
2018-02-13T07:30:45.047Z,2772
2018-02-13T07:31:44.619Z,2816
2018-02-13T07:32:45.076Z,2864
2018-02-13T07:33:44.833Z,2924
2018-02-13T07:34:45.111Z,2980
2018-02-13T07:35:44.859Z,3032
2018-02-13T07:36:44.381Z,3080
2018-02-13T07:37:44.877Z,3096
2018-02-13T07:38:44.632Z,3244
2018-02-13T07:39:45.171Z,3308
2018-02-13T07:40:44.905Z,3384
2018-02-13T07:41:44.666Z,3452
2018-02-13T07:42:45.020Z,3548
2018-02-13T07:43:44.948Z,3568
2018-02-13T07:44:44.954Z,3644
2018-02-13T07:45:44.966Z,3700
2018-02-13T07:46:44.724Z,3736
2018-02-13T07:47:44.747Z,3768
2018-02-13T07:48:45.256Z,3824
2018-02-13T07:49:45.015Z,3980
2018-02-13T07:50:44.775Z,4048
2018-02-13T07:51:44.784Z,4128
2018-02-13T07:52:45.046Z,4204
2018-02-13T07:53:44.816Z,4268
2018-02-13T07:54:45.071Z,4324
2018-02-13T07:55:44.574Z,4368
2018-02-13T07:56:45.093Z,4408
2018-02-13T07:57:45.101Z,4464
2018-02-13T07:58:45.120Z,4532
2018-02-13T07:59:44.875Z,4604
2018-02-13T08:00:45.391Z,4660
2018-02-13T08:01:44.899Z,4712
2018-02-13T08:02:45.167Z,4736
2018-02-13T08:03:44.932Z,4776
2018-02-13T08:04:45.440Z,4840
2018-02-13T08:05:45.200Z,4876
2018-02-13T08:06:45.213Z,4916
2018-02-13T08:07:45.051Z,4940
2018-02-13T08:08:45.485Z,4980
2018-02-13T08:09:45.261Z,4992
2018-02-13T08:10:45.268Z,3012
2018-02-13T08:11:45.533Z,3008
2018-02-13T08:12:45.081Z,2996
2018-02-13T08:13:45.299Z,3016
2018-02-13T08:14:45.316Z,3040
2018-02-13T08:15:45.073Z,3076
2018-02-13T08:16:45.106Z,3140
2018-02-13T08:17:45.349Z,3196
2018-02-13T08:18:45.363Z,3260
2018-02-13T08:19:45.128Z,3328
2018-02-13T08:20:45.386Z,3648
2018-02-13T08:21:45.649Z,4168
2018-02-13T08:22:45.429Z,5648
2018-02-13T08:23:45.173Z,5756
2018-02-13T08:24:45.693Z,5180
2018-02-13T08:25:45.190Z,3448
2018-02-13T08:26:45.209Z,3428
2018-02-13T08:27:45.523Z,3388
2018-02-13T08:28:45.487Z,3344
2018-02-13T08:29:45.496Z,3328
2018-02-13T08:30:45.260Z,3316
2018-02-13T08:31:45.275Z,3276
2018-02-13T08:32:45.289Z,3272
2018-02-13T08:33:45.599Z,3264
2018-02-13T08:34:45.809Z,3196
2018-02-13T08:35:45.827Z,3136
2018-02-13T08:36:45.078Z,3120
2018-02-13T08:37:45.596Z,3152
2018-02-13T08:38:45.356Z,3264
2018-02-13T08:39:45.485Z,3332
2018-02-13T08:40:45.633Z,3404
2018-02-13T08:41:45.397Z,3412
2018-02-13T08:42:45.912Z,3328
2018-02-13T08:43:45.673Z,3324
2018-02-13T08:44:45.929Z,3372
2018-02-13T08:45:45.953Z,3408
2018-02-13T08:46:45.962Z,3472
2018-02-13T08:47:45.720Z,3564
2018-02-13T08:48:45.493Z,3640
2018-02-13T08:49:45.738Z,3652
2018-02-13T08:50:46.048Z,3680
2018-02-13T08:51:45.539Z,3684
2018-02-13T08:52:45.789Z,3704
2018-02-13T08:53:45.804Z,3620
2018-02-13T08:54:46.062Z,3480
2018-02-13T08:55:45.575Z,3388
2018-02-13T08:56:46.074Z,3304
2018-02-13T08:57:45.845Z,3192
2018-02-13T08:58:45.856Z,3116
2018-02-13T08:59:45.614Z,3132
2018-02-13T09:00:45.881Z,3208
2018-02-13T09:01:45.640Z,3352
2018-02-13T09:02:45.659Z,3464
2018-02-13T09:03:45.676Z,3620
2018-02-13T09:04:45.678Z,3776
2018-02-13T09:05:45.695Z,3888
2018-02-13T09:06:46.269Z,4068
2018-02-13T09:07:46.226Z,4148
2018-02-13T09:08:45.987Z,4236
2018-02-13T09:09:45.994Z,4444
2018-02-13T09:10:45.751Z,4668
2018-02-13T09:11:46.015Z,4896
2018-02-13T09:12:46.045Z,5124
2018-02-13T09:13:45.793Z,5220
2018-02-13T09:14:46.116Z,5416
2018-02-13T09:15:46.071Z,6072
2018-02-13T09:16:45.828Z,5900
2018-02-13T09:17:46.346Z,5840
2018-02-13T09:18:45.908Z,5780
2018-02-13T09:19:45.858Z,5696
2018-02-13T09:20:46.380Z,5624
2018-02-13T09:21:46.144Z,5648
2018-02-13T09:22:46.163Z,5636
2018-02-13T09:23:45.939Z,5716
2018-02-13T09:24:45.939Z,5928
2018-02-13T09:25:46.196Z,6008
2018-02-13T09:26:46.518Z,6064
2018-02-13T09:27:46.225Z,6196
2018-02-13T09:28:45.990Z,6368
2018-02-13T09:29:46.272Z,6464
2018-02-13T09:30:45.764Z,6480
2018-02-13T09:31:46.535Z,6556
2018-02-13T09:32:46.541Z,6852
2018-02-13T09:33:46.046Z,7324
2018-02-13T09:34:46.311Z,7588
2018-02-13T09:35:46.075Z,7684
2018-02-13T09:36:46.131Z,7868
2018-02-13T09:37:46.095Z,7824
2018-02-13T09:38:46.617Z,7704
2018-02-13T09:39:46.384Z,7592
2018-02-13T09:40:46.394Z,7580
2018-02-13T09:41:46.406Z,7620
2018-02-13T09:42:46.171Z,7452
2018-02-13T09:43:46.442Z,7496
2018-02-13T09:44:46.253Z,7376
2018-02-13T09:45:46.232Z,7312
2018-02-13T09:46:46.481Z,7240
2018-02-13T09:47:46.746Z,7368
2018-02-13T09:48:46.759Z,7632
2018-02-13T09:49:46.763Z,8344
2018-02-13T09:50:46.529Z,10164
2018-02-13T09:51:46.794Z,8864
2018-02-13T09:52:46.302Z,10476
2018-02-13T09:53:46.583Z,11300
2018-02-13T09:54:46.828Z,11128
2018-02-13T09:55:46.848Z,8420
2018-02-13T09:56:46.611Z,8468
2018-02-13T09:57:46.624Z,9572
2018-02-13T09:58:46.137Z,12468
2018-02-13T09:59:46.934Z,12644
2018-02-13T10:00:46.684Z,12620
2018-02-13T10:01:46.200Z,11916
2018-02-13T10:02:46.692Z,9808
2018-02-13T10:03:46.469Z,10004
2018-02-13T10:04:46.725Z,9884
2018-02-13T10:05:46.986Z,10572
2018-02-13T10:06:46.498Z,11808
2018-02-13T10:07:46.532Z,13296
2018-02-13T10:08:46.521Z,14296
2018-02-13T10:09:46.541Z,14620
2018-02-13T10:10:46.802Z,14852
2018-02-13T10:11:46.568Z,14812
2018-02-13T10:12:47.103Z,14428
2018-02-13T10:13:47.108Z,14760
2018-02-13T10:14:46.643Z,15328
2018-02-13T10:15:46.895Z,15296
2018-02-13T10:16:47.175Z,15004
2018-02-13T10:17:47.228Z,18080
2018-02-13T10:18:46.695Z,32032
2018-02-13T10:19:46.699Z,39520
2018-02-13T10:20:47.216Z,42528
2018-02-13T10:21:47.236Z,41472
2018-02-13T10:22:46.999Z,41920
2018-02-13T10:23:47.268Z,40896
2018-02-13T10:24:46.785Z,31360
2018-02-13T10:25:46.796Z,25312
2018-02-13T10:26:46.878Z,13704
2018-02-13T10:27:46.837Z,16768
2018-02-13T10:28:46.862Z,20800
2018-02-13T10:29:47.385Z,24864
2018-02-13T10:30:46.889Z,21280
2018-02-13T10:31:46.911Z,10448
2018-02-13T10:32:47.244Z,9772
2018-02-13T10:33:47.454Z,9420
2018-02-13T10:34:47.482Z,8940
2018-02-13T10:35:47.495Z,8620
2018-02-13T10:36:47.262Z,8228
2018-02-13T10:37:47.043Z,8048
2018-02-13T10:38:47.293Z,7980
2018-02-13T10:39:47.061Z,8248
2018-02-13T10:40:47.581Z,11360
2018-02-13T10:41:47.351Z,11724
2018-02-13T10:42:47.113Z,20512
2018-02-13T10:43:47.382Z,21504
2018-02-13T10:44:47.658Z,44512
2018-02-13T10:45:47.418Z,49280
2018-02-13T10:46:47.433Z,50016
2018-02-13T10:47:47.703Z,52992
2018-02-13T10:48:47.718Z,12332
2018-02-13T10:49:47.522Z,11848
2018-02-13T10:50:47.508Z,12660
2018-02-13T10:51:47.797Z,16512
2018-02-13T10:52:47.794Z,15380
2018-02-13T10:53:47.312Z,13900
2018-02-13T10:54:47.831Z,11504
2018-02-13T10:55:47.606Z,11224
2018-02-13T10:56:47.898Z,10980
2018-02-13T10:57:47.885Z,10620
2018-02-13T10:58:47.915Z,10344
2018-02-13T10:59:47.424Z,9844
2018-02-13T11:00:47.698Z,9172
2018-02-13T11:01:47.719Z,8392
2018-02-13T11:02:47.741Z,7812
2018-02-13T11:03:47.766Z,7516
2018-02-13T11:04:47.516Z,7308
2018-02-13T11:05:47.286Z,7220
2018-02-13T11:06:47.573Z,7104
2018-02-13T11:07:47.579Z,7040
2018-02-13T11:08:48.097Z,7080
2018-02-13T11:09:47.636Z,7204
2018-02-13T11:10:47.867Z,7248
2018-02-13T11:11:47.629Z,6940
2018-02-13T11:12:48.146Z,6796
2018-02-13T11:13:48.192Z,6788
2018-02-13T11:14:48.187Z,6924
2018-02-13T11:15:47.956Z,7056
2018-02-13T11:16:47.727Z,7184
2018-02-13T11:17:47.989Z,7412
2018-02-13T11:18:48.015Z,7668
2018-02-13T11:19:47.771Z,7872
2018-02-13T11:20:48.044Z,8392
2018-02-13T11:21:48.318Z,8984
2018-02-13T11:22:48.079Z,11004
2018-02-13T11:23:47.840Z,40128
2018-02-13T11:24:48.115Z,42496
2018-02-13T11:25:47.872Z,40928
2018-02-13T11:26:48.139Z,12996
2018-02-13T11:27:48.408Z,12316
2018-02-13T11:28:48.218Z,12948
2018-02-13T11:29:48.182Z,13040
2018-02-13T11:30:47.963Z,12580
2018-02-13T11:31:48.226Z,11852
2018-02-13T11:32:48.050Z,11360
2018-02-13T11:33:48.547Z,10904
2018-02-13T11:34:48.278Z,10360
2018-02-13T11:35:48.046Z,9780
2018-02-13T11:36:48.323Z,9228
2018-02-13T11:37:48.344Z,8556
2018-02-13T11:38:48.348Z,7980
2018-02-13T11:39:47.858Z,7480
2018-02-13T11:40:48.132Z,7524
2018-02-13T11:41:48.147Z,7532
2018-02-13T11:42:48.421Z,7736
2018-02-13T11:43:48.443Z,8060
2018-02-13T11:44:48.449Z,8020
2018-02-13T11:45:48.729Z,7932
2018-02-13T11:46:48.487Z,7928
2018-02-13T11:47:48.504Z,8016
2018-02-13T11:48:48.013Z,8264
2018-02-13T11:49:48.578Z,9736
2018-02-13T11:50:48.803Z,8988
2018-02-13T11:51:48.567Z,8588
2018-02-13T11:52:48.834Z,8732
2018-02-13T11:53:48.347Z,8768
2018-02-13T11:54:48.869Z,8596
2018-02-13T11:55:48.378Z,8800
2018-02-13T11:56:48.396Z,8208
2018-02-13T11:57:48.411Z,8200
2018-02-13T11:58:48.712Z,8372
2018-02-13T11:59:48.698Z,8776
2018-02-13T12:00:48.711Z,8796
2018-02-13T12:01:48.737Z,8784
2018-02-13T12:02:49.065Z,8752
2018-02-13T12:03:48.771Z,8700
2018-02-13T12:04:49.024Z,8724
2018-02-13T12:05:48.809Z,9216
2018-02-13T12:06:48.303Z,10208
2018-02-13T12:07:48.572Z,10992
2018-02-13T12:08:48.612Z,10040
2018-02-13T12:09:49.110Z,9984
2018-02-13T12:10:49.135Z,10416
2018-02-13T12:11:48.886Z,9456
2018-02-13T12:12:48.903Z,9324
2018-02-13T12:13:48.916Z,9152
2018-02-13T12:14:48.684Z,8876
2018-02-13T12:15:49.193Z,8640
2018-02-13T12:16:48.707Z,8908
2018-02-13T12:17:48.480Z,9564
2018-02-13T12:18:49.001Z,11564
2018-02-13T12:19:48.778Z,29600
2018-02-13T12:20:48.593Z,19008
2018-02-13T12:21:49.048Z,30912
2018-02-13T12:22:48.817Z,82496
2018-02-13T12:23:49.335Z,15868
2018-02-13T12:24:48.594Z,34976
2018-02-13T12:25:48.612Z,14816
2018-02-13T12:26:48.944Z,39520
2018-02-13T12:27:48.913Z,13840
2018-02-13T12:28:49.175Z,17696
2018-02-13T12:29:49.438Z,87232
2018-02-13T12:30:49.455Z,87040
2018-02-13T12:31:48.979Z,87488
2018-02-13T12:32:49.239Z,86624
2018-02-13T12:33:49.265Z,83808
2018-02-13T12:34:49.380Z,70144
2018-02-13T12:35:48.799Z,44960
2018-02-13T12:36:49.327Z,20896
2018-02-13T12:37:49.097Z,17280
2018-02-13T12:39:03.792Z,71776
2018-02-13T12:39:49.391Z,63264
2018-02-13T12:40:49.429Z,74208
2018-02-13T12:41:49.436Z,77088
2018-02-13T12:42:49.216Z,76256
2018-02-13T12:43:49.238Z,75872
2018-02-13T12:44:49.014Z,15720
2018-02-13T12:45:49.283Z,17856
2018-02-13T12:46:49.559Z,73248
2018-02-13T12:47:49.325Z,57760
2018-02-13T12:48:49.613Z,77152
2018-02-13T12:49:49.892Z,76256
2018-02-13T12:50:49.666Z,76736
2018-02-13T12:51:49.438Z,75712
2018-02-13T12:52:49.466Z,74080
2018-02-13T12:53:49.770Z,71808
2018-02-13T12:54:49.767Z,74848
2018-02-13T12:55:49.794Z,76864
2018-02-13T12:56:49.829Z,78336
2018-02-13T12:57:49.599Z,76960
2018-02-13T12:58:49.886Z,83392
2018-02-13T12:59:49.651Z,81152
2018-02-13T13:00:49.939Z,73312
2018-02-13T13:01:49.714Z,68672
2018-02-13T13:02:49.999Z,17728
2018-02-13T13:03:50.042Z,15552
2018-02-13T13:04:50.300Z,15512
2018-02-13T13:05:50.087Z,14608
2018-02-13T13:06:50.115Z,15632
2018-02-13T13:07:50.142Z,20640
2018-02-13T13:08:50.166Z,17248
2018-02-13T13:09:50.208Z,14948
2018-02-13T13:10:49.974Z,14624
2018-02-13T13:11:49.999Z,15136
2018-02-13T13:12:50.368Z,18496
2018-02-13T13:13:50.049Z,32672
2018-02-13T13:14:50.071Z,81600
2018-02-13T13:15:50.120Z,85184
2018-02-13T13:16:50.375Z,85472
2018-02-13T13:17:50.164Z,83008
2018-02-13T13:18:50.429Z,84704
2018-02-13T13:19:50.706Z,79712
2018-02-13T13:20:50.567Z,78944
2018-02-13T13:21:50.253Z,38528
2018-02-13T13:22:50.796Z,20480
2018-02-13T13:23:50.556Z,56672
2018-02-13T13:24:50.837Z,57824
2018-02-13T13:25:50.618Z,64768
2018-02-13T13:26:50.895Z,38976
2018-02-13T13:27:50.685Z,54880
2018-02-13T13:28:50.445Z,97664
2018-02-13T13:29:50.471Z,31040
2018-02-13T13:30:50.763Z,100448
2018-02-13T13:31:51.034Z,87904
2018-02-13T13:32:50.802Z,59104
2018-02-13T13:33:51.090Z,56576
2018-02-13T13:34:50.622Z,62496
2018-02-13T13:35:51.144Z,31648
2018-02-13T13:36:50.926Z,43296
2018-02-13T13:37:50.705Z,28192
2018-02-13T13:38:50.983Z,50656
2018-02-13T13:39:51.007Z,59456
2018-02-13T13:40:51.274Z,86112
2018-02-13T13:41:50.552Z,87808
2018-02-13T13:42:50.839Z,89760
2018-02-13T13:43:50.857Z,86016
2018-02-13T13:44:50.887Z,89376
2018-02-13T13:45:51.170Z,90048
2018-02-13T13:46:50.696Z,93440
2018-02-13T13:47:51.216Z,94176
2018-02-13T13:48:50.999Z,92416
2018-02-13T13:49:51.324Z,90048
2018-02-13T13:50:51.311Z,86496
2018-02-13T13:51:51.586Z,85312